Flight Track Log - Related Links

Times and Time Zones

All times are in EST time to prevent confusion due to time zone crossing. See the N105WC flight status page for this flight to view local times or setup timezone preferences in your user account.

Time Position Orientation Groundspeed Altitude Reporting Facility
EST Latitude Longitude Course Direction KTS MPH feet Rate Location/Type
Thu 10:16:50 AM 49.1500 -123.1167 111° Southeast 200 230 2,400  Level Vancouver Center
Thu 10:17:50 AM 49.1333 -123.0167 104° East 250 288 4,800 3,100 Climbing Vancouver Center
Thu 10:18:50 AM 49.1167 -122.8833 101° East 270 311 8,600 3,350 Climbing Vancouver Center
Thu 10:19:50 AM 49.1000 -122.7833 104° East 270 311 11,500 2,550 Climbing Vancouver Center
Thu 10:20:50 AM 49.1167 -122.6500 79° East 290 334 13,700 2,250 Climbing Vancouver Center
Thu 10:21:00 AM 48.9333 -121.8941 90° East  Level FlightAware Approximate
Thu 10:21:50 AM 49.1167 -122.5167 90° East 310 357 16,000  Level Vancouver Center
Thu 10:22:50 AM 49.1333 -122.3667 80° East 340 391 18,100 2,150 Climbing Vancouver Center
Thu 10:23:50 AM 49.1333 -122.2167 90° East 360 414 20,300 2,000 Climbing Vancouver Center
Thu 10:24:50 AM 49.1333 -122.0667 90° East 380 437 22,100 1,900 Climbing Vancouver Center
Thu 10:25:50 AM 49.1500 -121.8833 82° East 390 449 24,100 1,950 Climbing Vancouver Center
Thu 10:26:50 AM 49.1667 -121.7333 80° East 400 460 26,000 1,950 Climbing Vancouver Center
Thu 10:27:50 AM 49.1833 -121.5500 82° East 400 460 28,000 1,600 Climbing Vancouver Center
Thu 10:28:50 AM 49.2000 -121.3667 82° East 410 472 29,200 1,300 Climbing Vancouver Center
Thu 10:29:50 AM 49.2167 -121.2167 80° East 420 483 30,600 1,400 Climbing Vancouver Center
Thu 10:30:50 AM 49.2333 -121.0333 82° East 420 483 32,000 1,050 Climbing Vancouver Center
Thu 10:31:50 AM 49.2500 -120.8500 82° East 420 483 32,700 750 Climbing Vancouver Center
Thu 10:32:50 AM 49.2833 -120.6833 73° East 430 495 33,500 850 Climbing Vancouver Center
Thu 10:33:50 AM 49.3000 -120.4667 83° East 430 495 34,400 750 Climbing Vancouver Center
Thu 10:34:50 AM 49.3167 -120.3167 80° East 430 495 35,000 600 Climbing Vancouver Center
Thu 10:35:50 AM 49.3500 -120.1167 76° East 430 495 35,600 550 Climbing Vancouver Center
Thu 10:36:50 AM 49.3500 -119.9333 90° East 430 495 36,100 550 Climbing Vancouver Center
Thu 10:37:50 AM 49.3833 -119.7500 74° East 430 495 36,700 450 Climbing Vancouver Center
Thu 10:38:50 AM 49.4000 -119.5667 82° East 430 495 37,000 150 Climbing Vancouver Center
Thu 10:39:50 AM 49.4167 -119.3833 82° East 440 506 37,000  Level Vancouver Center
Thu 10:40:50 AM 49.4333 -119.2000 82° East 450 518 37,000  Level Vancouver Center
Thu 10:41:50 AM 49.4500 -119.0167 82° East 460 529 37,000  Level Vancouver Center
Thu 10:42:50 AM 49.4833 -118.8167 76° East 460 529 37,000  Level Vancouver Center
Thu 10:43:50 AM 49.4833 -118.6000 90° East 460 529 37,000  Level Vancouver Center
Thu 10:44:50 AM 49.5167 -118.4167 74° East 470 541 37,000  Level Vancouver Center
Thu 10:45:50 AM 49.5333 -118.2167 83° East 460 529 37,000  Level Vancouver Center
Thu 10:46:50 AM 49.5500 -118.0000 83° East 470 541 37,000  Level Vancouver Center
Thu 10:47:50 AM 49.5667 -117.8167 82° East 470 541 37,000  Level Vancouver Center
Thu 10:48:50 AM 49.5833 -117.6333 82° East 470 541 37,000  Level Vancouver Center
Thu 10:49:50 AM 49.6000 -117.4333 83° East 470 541 37,000  Level Vancouver Center
Thu 10:50:50 AM 49.6167 -117.2167 83° East 470 541 37,000  Level Vancouver Center
Thu 10:51:50 AM 49.6333 -117.0167 83° East 470 541 37,000  Level Vancouver Center
Thu 10:52:50 AM 49.6500 -116.8333 82° East 470 541 37,000  Level Vancouver Center
Thu 10:53:50 AM 49.6667 -116.6167 83° East 470 541 37,000  Level Vancouver Center
Thu 10:54:50 AM 49.6833 -116.4167 83° East 470 541 37,000  Level Vancouver Center
Thu 10:55:50 AM 49.6833 -116.2000 90° East 470 541 37,000  Level Vancouver Center
Thu 10:56:50 AM 49.7000 -116.0167 82° East 470 541 37,000  Level Vancouver Center
Thu 10:57:50 AM 49.7333 -115.8167 75° East 480 552 37,000  Level Vancouver Center
Thu 10:58:50 AM 49.7333 -115.6000 90° East 470 541 37,000  Level Vancouver Center
Thu 10:59:50 AM 49.7500 -115.3833 83° East 480 552 37,000  Level Vancouver Center
Thu 11:00:50 AM 49.7667 -115.2000 82° East 480 552 37,000  Level Vancouver Center
Thu 11:01:50 AM 49.7667 -115.0000 90° East 480 552 37,000  Level Vancouver Center
Thu 11:02:50 AM 49.7833 -114.7833 83° East 480 552 37,000  Level Vancouver Center
Thu 11:03:50 AM 49.8000 -114.6000 82° East 480 552 37,000  Level Vancouver Center
Thu 11:04:50 AM 49.8000 -114.3667 90° East 490 564 37,000  Level Vancouver Center
Thu 11:05:50 AM 49.8167 -114.1833 82° East 490 564 37,000  Level Vancouver Center
Thu 11:06:50 AM 49.8333 -113.9500 84° East 490 564 37,000  Level Vancouver Center
Thu 11:07:50 AM 49.8500 -113.7667 82° East 490 564 37,000  Level Vancouver Center
Thu 11:08:50 AM 49.8500 -113.5333 90° East 490 564 37,000  Level Vancouver Center
Thu 11:09:50 AM 49.8667 -113.3333 83° East 490 564 37,000  Level Vancouver Center
Thu 11:10:50 AM 49.8833 -113.1333 83° East 490 564 37,000  Level Vancouver Center
Thu 11:11:50 AM 49.8833 -112.9167 90° East 490 564 37,000  Level Vancouver Center
Thu 11:12:50 AM 49.8833 -112.7000 90° East 490 564 37,000  Level Vancouver Center
Thu 11:13:50 AM 49.9000 -112.5000 83° East 490 564 37,000  Level Vancouver Center
Thu 11:14:50 AM 49.9167 -112.2833 83° East 490 564 37,000  Level Vancouver Center
Thu 11:15:50 AM 49.9000 -112.0833 97° East 480 552 37,000  Level Vancouver Center
Thu 11:16:50 AM 49.9167 -111.8667 83° East 490 564 37,000  Level Vancouver Center
Thu 11:17:50 AM 49.9333 -111.6500 83° East 490 564 37,000  Level Vancouver Center
Thu 11:19:15 AM 49.9333 -111.4000 90° East 480 552 37,000  Level Edmonton Center
Thu 11:20:15 AM 49.9333 -111.2000 90° East 480 552 37,000  Level Edmonton Center
Thu 11:21:15 AM 49.9500 -110.9833 83° East 480 552 37,000  Level Edmonton Center
Thu 11:22:15 AM 49.9500 -110.7833 90° East 490 564 37,000  Level Edmonton Center
Thu 11:23:15 AM 49.9500 -110.5667 90° East 480 552 37,000  Level Edmonton Center
Thu 11:24:15 AM 49.9500 -110.3667 90° East 490 564 37,000  Level Edmonton Center
Thu 11:25:15 AM 49.9667 -110.1500 83° East 490 564 37,000  Level Edmonton Center
Thu 11:26:15 AM 49.9667 -109.9500 90° East 490 564 37,000  Level Edmonton Center
Thu 11:27:15 AM 49.9667 -109.7333 90° East 490 564 37,000  Level Edmonton Center
Thu 11:28:15 AM 49.9667 -109.5000 90° East 490 564 37,000  Level Edmonton Center
Thu 11:29:15 AM 49.9667 -109.2833 90° East 490 564 37,000  Level Edmonton Center
Thu 11:30:15 AM 49.9833 -109.0500 84° East 500 575 37,000  Level Edmonton Center
Thu 11:31:15 AM 49.9667 -108.8500 97° East 500 575 37,000  Level Edmonton Center
Thu 11:32:15 AM 49.9833 -108.6333 83° East 500 575 37,000  Level Edmonton Center
Thu 11:33:15 AM 49.9833 -108.4167 90° East 500 575 37,000  Level Edmonton Center
Thu 11:34:15 AM 49.9833 -108.2167 90° East 500 575 37,000  Level Edmonton Center
Thu 11:35:15 AM 49.9833 -108.0000 90° East 500 575 37,000  Level Edmonton Center
Thu 11:36:15 AM 49.9833 -107.7667 90° East 500 575 37,000  Level Edmonton Center
Thu 11:37:15 AM 49.9833 -107.5667 90° East 500 575 37,000  Level Edmonton Center
Thu 11:38:15 AM 49.9833 -107.3167 90° East 500 575 37,000  Level Edmonton Center
Thu 11:39:15 AM 49.9833 -107.1167 90° East 500 575 37,000  Level Edmonton Center
Thu 11:40:15 AM 49.9667 -106.9000 97° East 500 575 37,000  Level Edmonton Center
Thu 11:41:15 AM 49.9833 -106.6667 84° East 500 575 37,000  Level Edmonton Center
Thu 11:42:15 AM 49.9833 -106.4667 90° East 500 575 37,000  Level Edmonton Center
Thu 11:43:15 AM 49.9667 -106.2500 97° East 500 575 37,000  Level Edmonton Center
Thu 11:44:15 AM 49.9667 -106.0167 90° East 500 575 37,000  Level Edmonton Center
Thu 11:45:15 AM 49.9667 -105.8000 90° East 500 575 37,000  Level Edmonton Center
Thu 11:46:15 AM 49.9500 -105.6000 97° East 500 575 37,000  Level Edmonton Center
Thu 11:47:15 AM 49.9500 -105.3833 90° East 500 575 37,000  Level Edmonton Center
Thu 11:48:09 AM 49.9667 -105.2167 81° East 500 575 37,000  Level Winnipeg Center
Thu 11:49:09 AM 49.9667 -104.9833 90° East 500 575 37,000  Level Winnipeg Center
Thu 11:50:09 AM 49.9500 -104.7833 97° East 500 575 37,000  Level Winnipeg Center
Thu 11:51:09 AM 49.9500 -104.5667 90° East 500 575 37,000  Level Winnipeg Center
Thu 11:52:09 AM 49.9500 -104.3333 90° East 500 575 37,000  Level Winnipeg Center
Thu 11:53:09 AM 49.9333 -104.1167 97° East 500 575 37,000  Level Winnipeg Center
Thu 11:54:09 AM 49.9167 -103.9167 97° East 500 575 37,000  Level Winnipeg Center
Thu 11:55:09 AM 49.9167 -103.7000 90° East 510 587 37,000  Level Winnipeg Center
Thu 11:56:09 AM 49.9167 -103.4667 90° East 500 575 37,000  Level Winnipeg Center
Thu 11:57:09 AM 49.9000 -103.2500 97° East 500 575 37,000  Level Winnipeg Center
Thu 11:58:09 AM 49.9000 -103.0167 90° East 500 575 37,000  Level Winnipeg Center
Thu 11:59:09 AM 49.8833 -102.8167 97° East 510 587 37,000  Level Winnipeg Center
Thu 12:00:09 PM 49.8667 -102.6000 97° East 510 587 37,000  Level Winnipeg Center
Thu 12:01:09 PM 49.8667 -102.3667 90° East 510 587 37,000  Level Winnipeg Center
Thu 12:02:09 PM 49.8667 -102.1667 90° East 510 587 37,000  Level Winnipeg Center
Thu 12:03:09 PM 49.8333 -101.9167 102° East 510 587 37,000  Level Winnipeg Center
Thu 12:04:09 PM 49.8333 -101.7167 90° East 510 587 37,000  Level Winnipeg Center
Thu 12:05:09 PM 49.8167 -101.5000 97° East 510 587 37,000  Level Winnipeg Center
Thu 12:06:09 PM 49.8167 -101.2667 90° East 510 587 37,000  Level Winnipeg Center
Thu 12:07:09 PM 49.7833 -101.0667 104° East 510 587 37,000  Level Winnipeg Center
Thu 12:08:09 PM 49.7833 -100.8500 90° East 510 587 37,000  Level Winnipeg Center
Thu 12:09:09 PM 49.7667 -100.6167 96° East 510 587 37,000  Level Winnipeg Center
Thu 12:10:09 PM 49.7667 -100.4167 90° East 510 587 37,000  Level Winnipeg Center
Thu 12:11:09 PM 49.7333 -100.1833 102° East 510 587 37,000  Level Winnipeg Center
Thu 12:12:09 PM 49.7167 -99.9667 97° East 510 587 37,000  Level Winnipeg Center
Thu 12:13:09 PM 49.7167 -99.7333 90° East 520 598 37,000  Level Winnipeg Center
Thu 12:14:09 PM 49.7000 -99.5000 96° East 520 598 37,000  Level Winnipeg Center
Thu 12:15:09 PM 49.6833 -99.3000 97° East 520 598 37,000  Level Winnipeg Center
Thu 12:16:09 PM 49.6667 -99.0833 97° East 520 598 37,000  Level Winnipeg Center
Thu 12:17:09 PM 49.6500 -98.8500 96° East 520 598 37,000  Level Winnipeg Center
Thu 12:18:09 PM 49.6333 -98.6167 96° East 520 598 37,000  Level Winnipeg Center
Thu 12:19:09 PM 49.6167 -98.4167 97° East 520 598 37,000  Level Winnipeg Center
Thu 12:20:09 PM 49.5833 -98.2000 103° East 520 598 37,000  Level Winnipeg Center
Thu 12:21:09 PM 49.5667 -97.9667 96° East 520 598 37,000  Level Winnipeg Center
Thu 12:22:09 PM 49.5667 -97.7333 90° East 520 598 37,000  Level Winnipeg Center
Thu 12:23:09 PM 49.5500 -97.5000 96° East 520 598 37,000  Level Winnipeg Center
Thu 12:24:09 PM 49.5167 -97.3000 104° East 520 598 37,000  Level Winnipeg Center
Thu 12:25:09 PM 49.5000 -97.0667 96° East 520 598 37,000  Level Winnipeg Center
Thu 12:26:09 PM 49.4833 -96.8667 97° East 520 598 37,000  Level Winnipeg Center
Thu 12:27:09 PM 49.4500 -96.6333 102° East 530 610 37,000  Level Winnipeg Center
Thu 12:28:09 PM 49.4333 -96.4000 96° East 530 610 37,000  Level Winnipeg Center
Thu 12:29:09 PM 49.4000 -96.1667 102° East 530 610 37,000  Level Winnipeg Center
Thu 12:30:09 PM 49.3833 -95.9667 97° East 530 610 37,000  Level Winnipeg Center
Thu 12:31:09 PM 49.3667 -95.7667 97° East 530 610 37,000  Level Winnipeg Center
Thu 12:32:09 PM 49.3333 -95.5000 101° East 530 610 37,000  Level Winnipeg Center
Thu 12:33:09 PM 49.3167 -95.3000 97° East 530 610 37,000  Level Winnipeg Center
Thu 12:34:09 PM 49.3000 -95.0667 96° East 530 610 37,000  Level Winnipeg Center
Thu 12:35:09 PM 49.2500 -94.8667 111° Southeast 530 610 37,000  Level Winnipeg Center
Thu 12:36:09 PM 49.2333 -94.6333 96° East 530 610 37,000  Level Winnipeg Center
Thu 12:37:09 PM 49.2167 -94.4000 96° East 530 610 37,000  Level Winnipeg Center
Thu 12:38:09 PM 49.2000 -94.2000 97° East 530 610 37,000  Level Winnipeg Center
Thu 12:39:09 PM 49.1500 -93.9667 108° East 530 610 37,000  Level Winnipeg Center
Thu 12:40:09 PM 49.1333 -93.7500 97° East 530 610 37,000  Level Winnipeg Center
Thu 12:41:09 PM 49.1000 -93.5167 102° East 530 610 37,000  Level Winnipeg Center
Thu 12:42:09 PM 49.0833 -93.3167 97° East 530 610 37,000  Level Winnipeg Center
Thu 12:43:09 PM 49.0500 -93.0833 102° East 530 610 37,000  Level Winnipeg Center
Thu 12:44:09 PM 49.0167 -92.8667 103° East 530 610 37,000  Level Winnipeg Center
Thu 12:45:09 PM 49.0000 -92.6333 96° East 530 610 37,000  Level Winnipeg Center
Thu 12:46:09 PM 48.9667 -92.4333 104° East 530 610 37,000  Level Winnipeg Center
Thu 12:47:09 PM 48.9167 -92.2000 108° East 530 610 37,000  Level Winnipeg Center
Thu 12:48:09 PM 48.9000 -91.9833 97° East 530 610 37,000  Level Winnipeg Center
Thu 12:49:09 PM 48.8667 -91.7833 104° East 520 598 37,000  Level Winnipeg Center
Thu 12:50:09 PM 48.8500 -91.5500 96° East 530 610 37,000  Level Winnipeg Center
Thu 12:51:09 PM 48.8167 -91.3500 104° East 530 610 37,000  Level Winnipeg Center
Thu 12:52:09 PM 48.7667 -91.1333 109° East 530 610 37,000  Level Winnipeg Center
Thu 12:53:09 PM 48.7500 -90.9000 96° East 530 610 37,000  Level Winnipeg Center
Thu 12:54:09 PM 48.7167 -90.6833 103° East 530 610 37,000  Level Winnipeg Center
Thu 12:55:09 PM 48.6667 -90.4833 111° Southeast 530 610 37,000  Level Winnipeg Center
Thu 12:56:09 PM 48.6333 -90.2333 101° East 530 610 37,000  Level Winnipeg Center
Thu 12:57:09 PM 48.6167 -90.0333 97° East 530 610 37,000  Level Winnipeg Center
Thu 12:58:09 PM 48.5833 -89.8167 103° East 530 610 37,000  Level Winnipeg Center
Thu 12:59:09 PM 48.5333 -89.5833 108° East 540 621 37,000  Level Winnipeg Center
Thu 01:00:09 PM 48.5000 -89.3833 104° East 530 610 37,000  Level Winnipeg Center
Thu 01:01:09 PM 48.4667 -89.1667 103° East 510 587 37,000  Level Winnipeg Center
Thu 01:02:09 PM 48.4333 -88.9500 103° East 540 621 37,000  Level Winnipeg Center
Thu 01:03:09 PM 48.3833 -88.7333 109° East 540 621 37,000  Level Winnipeg Center
Thu 01:04:09 PM 48.3500 -88.5000 102° East 540 621 37,000  Level Winnipeg Center
Thu 01:05:09 PM 48.3167 -88.2833 103° East 540 621 37,000  Level Winnipeg Center
Thu 01:06:09 PM 48.2833 -88.0667 103° East 540 621 37,000  Level Winnipeg Center
Thu 01:07:09 PM 48.2333 -87.8667 111° Southeast 530 610 37,000  Level Winnipeg Center
Thu 01:08:09 PM 48.2000 -87.6500 103° East 530 610 37,000  Level Winnipeg Center
Thu 01:09:09 PM 48.1667 -87.4333 103° East 530 610 37,000  Level Winnipeg Center
Thu 01:10:09 PM 48.1333 -87.2167 103° East 530 610 37,000  Level Winnipeg Center
Thu 01:11:09 PM 48.0833 -87.0167 110° East 530 610 37,000  Level Winnipeg Center
Thu 01:12:09 PM 48.0333 -86.8000 109° East 530 610 37,000  Level Winnipeg Center
Thu 01:13:09 PM 48.0000 -86.5833 103° East 530 610 37,000  Level Winnipeg Center
Thu 01:14:09 PM 47.9667 -86.3667 103° East 530 610 37,000  Level Winnipeg Center
Thu 01:15:09 PM 47.9333 -86.1500 103° East 540 621 37,000  Level Winnipeg Center
Thu 01:16:09 PM 47.8667 -85.9333 115° Southeast 530 610 37,000  Level Winnipeg Center
Thu 01:17:12 PM 47.8333 -85.7667 107° East 530 610 37,000  Level Toronto Center
Thu 01:18:12 PM 47.8000 -85.5667 104° East 530 610 37,000  Level Toronto Center
Thu 01:19:12 PM 47.7667 -85.3667 104° East 530 610 37,000  Level Toronto Center
Thu 01:20:12 PM 47.7167 -85.1500 109° East 530 610 37,000  Level Toronto Center
Thu 01:21:12 PM 47.6667 -84.9333 109° East 530 610 37,000  Level Toronto Center
Thu 01:22:12 PM 47.6167 -84.7333 110° East 520 598 37,000  Level Toronto Center
Thu 01:23:12 PM 47.5833 -84.5167 103° East 530 610 37,000  Level Toronto Center
Thu 01:24:12 PM 47.5333 -84.3167 110° East 530 610 37,000  Level Toronto Center
Thu 01:25:12 PM 47.5000 -84.1167 104° East 520 598 37,000  Level Toronto Center
Thu 01:26:12 PM 47.4500 -83.9000 109° East 520 598 37,000  Level Toronto Center
Thu 01:27:12 PM 47.4167 -83.7000 104° East 520 598 37,000  Level Toronto Center
Thu 01:28:12 PM 47.3500 -83.5167 118° Southeast 520 598 37,000  Level Toronto Center
Thu 01:29:12 PM 47.3167 -83.3000 103° East 520 598 37,000  Level Toronto Center
Thu 01:30:12 PM 47.2667 -83.1000 110° East 520 598 37,000  Level Toronto Center
Thu 01:31:12 PM 47.2167 -82.9000 110° East 530 610 37,000  Level Toronto Center
Thu 01:32:12 PM 47.1833 -82.7000 104° East 530 610 37,000  Level Toronto Center
Thu 01:33:12 PM 47.1333 -82.5000 110° East 530 610 37,000  Level Toronto Center
Thu 01:34:12 PM 47.0833 -82.2833 109° East 530 610 37,000  Level Toronto Center
Thu 01:35:12 PM 47.0167 -82.0833 116° Southeast 530 610 37,000  Level Toronto Center
Thu 01:36:12 PM 46.9833 -81.8833 104° East 530 610 37,000  Level Toronto Center
Thu 01:37:12 PM 46.9333 -81.6833 110° East 520 598 37,000  Level Toronto Center
Thu 01:38:12 PM 46.8833 -81.4667 109° East 520 598 37,000  Level Toronto Center
Thu 01:39:12 PM 46.8333 -81.2833 112° Southeast 520 598 37,000  Level Toronto Center
Thu 01:40:12 PM 46.7833 -81.1000 112° Southeast 520 598 37,000  Level Toronto Center
Thu 01:41:12 PM 46.7333 -80.8667 107° East 520 598 37,000  Level Toronto Center
Thu 01:42:12 PM 46.6833 -80.6833 112° Southeast 520 598 37,000  Level Toronto Center
Thu 01:43:12 PM 46.6333 -80.4833 110° East 520 598 37,000 -400 Level Toronto Center
Thu 01:44:12 PM 46.5833 -80.2833 110° East 510 587 36,200 -950 Descending Toronto Center
Thu 01:45:12 PM 46.5333 -80.1000 112° Southeast 510 587 35,100 -1,050 Descending Toronto Center
Thu 01:46:12 PM 46.4833 -79.9000 110° East 530 610 34,100 -750 Descending Toronto Center
Thu 01:47:12 PM 46.4333 -79.7000 110° East 520 598 33,600 -400 Descending Toronto Center
Thu 01:48:12 PM 46.3833 -79.5167 112° Southeast 510 587 33,300 -300 Descending Toronto Center
Thu 01:49:12 PM 46.3167 -79.3167 116° Southeast 520 598 33,000 -150 Descending Toronto Center
Thu 01:50:12 PM 46.2500 -79.1333 118° Southeast 510 587 33,000  Level Toronto Center
Thu 01:51:12 PM 46.1833 -78.9833 123° Southeast 520 598 33,000  Level Toronto Center
Thu 01:52:12 PM 46.1167 -78.7667 114° Southeast 520 598 33,000  Level Toronto Center
Thu 01:53:12 PM 46.0500 -78.6000 120° Southeast 510 587 33,000  Level Toronto Center
Thu 01:54:12 PM 45.9667 -78.4167 123° Southeast 510 587 33,000 -900 Level Toronto Center
Thu 01:55:12 PM 45.9000 -78.2500 120° Southeast 500 575 31,200 -2,550 Descending Toronto Center
Thu 01:56:12 PM 45.8333 -78.0500 116° Southeast 500 575 27,900 -2,900 Descending Toronto Center
Thu 01:57:12 PM 45.7833 -77.8833 113° Southeast 500 575 25,400 -2,200 Descending Toronto Center
Thu 01:58:12 PM 45.7167 -77.7167 120° Southeast 470 541 23,500 -1,800 Descending Toronto Center
Thu 01:59:12 PM 45.6500 -77.5833 126° Southeast 460 529 21,800 -2,150 Descending Toronto Center
Thu 02:00:12 PM 45.6167 -77.3833 103° East 460 529 19,200 -2,474 Descending Toronto Center
Thu 02:01:06 PM 45.5833 -77.2667 112° Southeast 460 529 17,100 -1,789 Descending Montreal Center
Thu 02:02:06 PM 45.5500 -77.1167 108° East 430 495 15,800 -1,400 Descending Montreal Center
Thu 02:03:06 PM 45.5167 -76.9667 108° East 390 449 14,300 -1,667 Descending Montreal Center
Thu 02:04:12 PM 45.4833 -76.7833 104° East 370 426 12,300 -1,619 Descending Toronto Center
Thu 02:05:12 PM 45.4667 -76.6667 101° East 320 368 10,900 -1,700 Descending Toronto Center
Thu 02:06:12 PM 45.4333 -76.5667 115° Southeast 300 345 8,900 -1,700 Descending Toronto Center
Thu 02:07:12 PM 45.4000 -76.4500 112° Southeast 290 334 7,500 -1,400 Descending Toronto Center
Thu 02:08:12 PM 45.3833 -76.3500 103° East 270 311 6,100 -1,421 Descending Toronto Center
Thu 02:09:06 PM 45.3667 -76.3000 115° Southeast 250 288 4,800 -1,263 Descending Montreal Center
Thu 02:10:06 PM 45.3500 -76.2000 103° East 240 276 3,700 -1,000 Descending Montreal Center
Thu 02:11:06 PM 45.3167 -76.1167 120° Southeast 210 242 2,800 -850 Descending Montreal Center
Thu 02:12:06 PM 45.3000 -76.0333 106° East 190 219 2,000 -550 Descending Montreal Center
Thu 02:13:06 PM 45.2833 -76.0000 125° Southeast 150 173 1,700 -300 Descending Montreal Center
Thu 02:14:06 PM 45.3000 -75.9500 65° Northeast 170 196 1,400 -450 Descending Montreal Center
Thu 02:15:06 PM 45.3000 -76.0000 270° West 110 127 800 -600 Descending Montreal Center

Login

Don't have an account? Register now (free) for customized features, flight alerts, and more!